createdAt,value
2017-09-28T00:01:33.093Z,16.20
2017-09-28T00:04:01.431Z,16.20
2017-09-28T00:06:29.788Z,16.20
2017-09-28T00:08:58.851Z,16.20
2017-09-28T00:11:27.186Z,16.20
2017-09-28T00:13:55.513Z,16.20
2017-09-28T00:16:23.827Z,16.20
2017-09-28T00:18:52.889Z,16.10
2017-09-28T00:21:21.199Z,16.10
2017-09-28T00:23:50.273Z,16.10
2017-09-28T00:26:18.608Z,16.10
2017-09-28T00:28:46.930Z,16.10
2017-09-28T00:31:15.244Z,16.10
2017-09-28T00:33:44.331Z,16.10
2017-09-28T00:36:12.647Z,16.10
2017-09-28T00:38:40.957Z,16.10
2017-09-28T00:41:09.282Z,16.10
2017-09-28T00:43:37.609Z,16.10
2017-09-28T00:46:05.906Z,16.10
2017-09-28T00:48:34.232Z,16.00
2017-09-28T00:51:03.306Z,16.00
2017-09-28T00:53:31.606Z,16.00
2017-09-28T00:55:59.928Z,16.00
2017-09-28T00:58:28.232Z,16.00
2017-09-28T01:00:56.554Z,16.00
2017-09-28T01:03:24.882Z,16.00
2017-09-28T01:05:53.360Z,16.00
2017-09-28T01:08:21.676Z,15.90
2017-09-28T01:10:50.000Z,16.00
2017-09-28T01:13:19.062Z,15.90
2017-09-28T01:15:47.396Z,15.90
2017-09-28T01:18:15.773Z,15.90
2017-09-28T01:20:44.103Z,15.90
2017-09-28T01:23:12.434Z,15.90
2017-09-28T01:25:40.759Z,15.90
2017-09-28T01:28:09.531Z,15.90
2017-09-28T01:30:37.852Z,15.90
2017-09-28T01:33:06.164Z,15.90
2017-09-28T01:35:35.236Z,15.90
2017-09-28T01:38:03.562Z,15.90
2017-09-28T01:40:31.884Z,15.90
2017-09-28T01:43:00.190Z,15.80
2017-09-28T01:45:28.509Z,15.80
2017-09-28T01:47:56.950Z,15.80
2017-09-28T01:50:25.870Z,15.80
2017-09-28T01:52:54.956Z,15.80
2017-09-28T01:55:23.300Z,15.80
2017-09-28T01:57:51.598Z,15.80
2017-09-28T02:00:19.916Z,15.80
2017-09-28T02:02:48.242Z,15.80
2017-09-28T02:05:16.576Z,15.80
2017-09-28T02:07:45.646Z,15.80
2017-09-28T02:10:14.012Z,15.80
2017-09-28T02:12:42.433Z,15.70
2017-09-28T02:15:10.737Z,15.70
2017-09-28T02:17:39.059Z,15.70
2017-09-28T02:20:07.499Z,15.70
2017-09-28T02:22:35.814Z,15.70
2017-09-28T02:25:04.132Z,15.70
2017-09-28T02:27:32.446Z,15.70
2017-09-28T02:30:00.743Z,15.70
2017-09-28T02:32:29.058Z,15.70
2017-09-28T02:34:57.361Z,15.70
2017-09-28T02:37:25.678Z,15.70
2017-09-28T02:39:54.013Z,15.70
2017-09-28T02:42:22.317Z,15.70
2017-09-28T02:44:51.414Z,15.80
2017-09-28T02:47:20.502Z,15.80
2017-09-28T02:49:48.812Z,15.80
2017-09-28T02:52:17.887Z,15.80
2017-09-28T02:54:46.971Z,15.80
2017-09-28T02:57:15.280Z,15.80
2017-09-28T02:59:44.352Z,15.80
2017-09-28T03:02:12.698Z,15.80
2017-09-28T03:04:41.013Z,15.80
2017-09-28T03:07:09.311Z,15.80
2017-09-28T03:09:37.626Z,15.80
2017-09-28T03:12:05.938Z,15.80
2017-09-28T03:14:34.255Z,15.80
2017-09-28T03:17:02.566Z,15.80
2017-09-28T03:19:30.864Z,15.80
2017-09-28T03:21:59.162Z,15.80
2017-09-28T03:24:27.492Z,15.80
2017-09-28T03:26:56.575Z,15.80
2017-09-28T03:29:24.872Z,15.80
2017-09-28T03:31:53.962Z,15.80
2017-09-28T03:34:22.276Z,15.80
2017-09-28T03:36:50.662Z,15.80
2017-09-28T03:39:18.975Z,15.80
2017-09-28T03:41:47.273Z,15.80
2017-09-28T03:44:15.737Z,15.80
2017-09-28T03:46:44.039Z,15.80
2017-09-28T03:49:12.361Z,15.70
2017-09-28T03:51:41.446Z,15.70
2017-09-28T03:54:10.538Z,15.70
2017-09-28T03:56:38.839Z,15.60
2017-09-28T03:59:07.929Z,15.60
2017-09-28T04:01:37.003Z,15.60
2017-09-28T04:04:05.323Z,15.50
2017-09-28T04:06:33.759Z,15.50
2017-09-28T04:09:02.097Z,15.50
2017-09-28T04:11:30.422Z,15.40
2017-09-28T04:13:58.735Z,15.40
2017-09-28T04:16:27.825Z,15.40
2017-09-28T04:18:56.144Z,15.40
2017-09-28T04:21:24.458Z,15.40
2017-09-28T04:23:52.763Z,15.40
2017-09-28T04:26:21.082Z,15.40
2017-09-28T04:28:49.396Z,15.40
2017-09-28T04:31:17.695Z,15.40
2017-09-28T04:33:45.997Z,15.40
2017-09-28T04:36:14.331Z,15.40
2017-09-28T04:38:42.647Z,15.30
2017-09-28T04:41:10.964Z,15.30
2017-09-28T04:43:40.053Z,15.30
2017-09-28T04:46:09.119Z,15.30
2017-09-28T04:48:37.436Z,15.30
2017-09-28T04:51:06.595Z,15.30
2017-09-28T04:53:34.907Z,15.30
2017-09-28T04:56:03.211Z,15.30
2017-09-28T04:58:32.321Z,15.40
2017-09-28T05:01:00.654Z,15.40
2017-09-28T05:03:28.983Z,15.40
2017-09-28T05:05:57.304Z,15.40
2017-09-28T05:08:25.616Z,15.40
2017-09-28T05:10:53.937Z,15.40
2017-09-28T05:13:22.276Z,15.30
2017-09-28T05:15:50.682Z,15.30
2017-09-28T05:18:19.749Z,15.30
2017-09-28T05:20:48.099Z,15.30
2017-09-28T05:23:16.408Z,15.30
2017-09-28T05:25:44.757Z,15.30
2017-09-28T05:28:13.054Z,15.30
2017-09-28T05:30:41.359Z,15.30
2017-09-28T05:33:09.669Z,15.30
2017-09-28T05:35:38.727Z,15.30
2017-09-28T05:38:07.039Z,15.30
2017-09-28T05:40:36.105Z,15.30
2017-09-28T05:43:04.452Z,15.30
2017-09-28T05:45:32.776Z,15.30
2017-09-28T05:48:01.085Z,15.30
2017-09-28T05:50:30.919Z,15.30
2017-09-28T05:52:59.220Z,15.30
2017-09-28T05:55:27.531Z,15.30
2017-09-28T05:57:55.836Z,15.30
2017-09-28T06:00:24.154Z,15.30
2017-09-28T06:02:52.515Z,15.30
2017-09-28T06:05:21.642Z,15.30
2017-09-28T06:07:49.948Z,15.30
2017-09-28T06:10:18.295Z,15.30
2017-09-28T06:12:46.623Z,15.30
2017-09-28T06:15:14.923Z,15.30
2017-09-28T06:17:43.249Z,15.30
2017-09-28T06:20:11.558Z,15.30
2017-09-28T06:22:39.957Z,15.30
2017-09-28T06:25:08.259Z,15.30
2017-09-28T06:27:36.582Z,15.30
2017-09-28T06:30:04.892Z,15.30
2017-09-28T06:32:33.247Z,15.30
2017-09-28T06:35:01.577Z,15.30
2017-09-28T06:37:29.887Z,15.30
2017-09-28T06:39:58.975Z,15.30
2017-09-28T06:42:28.055Z,15.30
2017-09-28T06:44:56.364Z,15.30
2017-09-28T06:47:25.435Z,15.20
2017-09-28T06:49:53.761Z,15.20
2017-09-28T06:52:22.065Z,15.10
2017-09-28T06:54:50.363Z,15.10
2017-09-28T06:57:19.452Z,15.10
2017-09-28T06:59:47.853Z,15.10
2017-09-28T07:02:16.171Z,15.00
2017-09-28T07:04:45.256Z,15.00
2017-09-28T07:07:14.343Z,15.00
2017-09-28T07:09:42.657Z,15.00
2017-09-28T07:12:11.736Z,15.00
2017-09-28T07:14:40.824Z,15.00
2017-09-28T07:17:09.901Z,15.00
2017-09-28T07:19:38.221Z,15.00
2017-09-28T07:22:07.336Z,15.00
2017-09-28T07:24:36.405Z,15.00
2017-09-28T07:27:04.753Z,15.00
2017-09-28T07:29:33.060Z,15.00
2017-09-28T07:32:01.375Z,15.00
2017-09-28T07:34:30.485Z,15.00
2017-09-28T07:36:58.806Z,15.00
2017-09-28T07:39:27.141Z,15.00
2017-09-28T07:41:56.264Z,15.00
2017-09-28T07:44:24.567Z,15.00
2017-09-28T07:46:52.883Z,15.00
2017-09-28T07:49:21.212Z,15.00
2017-09-28T07:51:49.537Z,15.10
2017-09-28T07:54:17.857Z,15.10
2017-09-28T07:56:46.171Z,15.10
2017-09-28T07:59:14.473Z,15.10
2017-09-28T08:01:42.806Z,15.10
2017-09-28T08:04:11.117Z,15.10
2017-09-28T08:06:39.429Z,15.10
2017-09-28T08:09:07.757Z,15.10
2017-09-28T08:11:36.072Z,15.10
2017-09-28T08:14:04.393Z,15.10
2017-09-28T08:16:33.710Z,15.10
2017-09-28T08:19:02.777Z,15.10
2017-09-28T08:21:31.091Z,15.10
2017-09-28T08:24:00.159Z,15.20
2017-09-28T08:26:28.594Z,15.20
2017-09-28T08:28:56.933Z,15.20
2017-09-28T08:31:25.249Z,15.20
2017-09-28T08:33:53.568Z,15.20
2017-09-28T08:36:21.894Z,15.20
2017-09-28T08:38:51.654Z,15.20
2017-09-28T08:41:19.970Z,15.20
2017-09-28T08:43:48.309Z,15.30
2017-09-28T08:46:16.606Z,15.30
2017-09-28T08:48:44.910Z,15.30
2017-09-28T08:51:13.299Z,15.30
2017-09-28T08:53:41.626Z,15.30
2017-09-28T08:56:09.938Z,15.30
2017-09-28T08:58:38.258Z,15.30
2017-09-28T09:01:07.326Z,15.40
2017-09-28T09:03:35.673Z,15.40
2017-09-28T09:06:03.970Z,15.40
2017-09-28T09:08:32.275Z,15.40
2017-09-28T09:11:00.613Z,15.40
2017-09-28T09:13:28.931Z,15.40
2017-09-28T09:15:57.269Z,15.50
2017-09-28T09:18:25.603Z,15.50
2017-09-28T09:20:53.901Z,15.50
2017-09-28T09:23:22.212Z,15.60
2017-09-28T09:25:50.530Z,15.70
2017-09-28T09:28:18.934Z,15.70
2017-09-28T09:30:47.267Z,15.80
2017-09-28T09:33:15.568Z,15.90
2017-09-28T09:35:43.893Z,15.90
2017-09-28T09:38:13.008Z,16.10
2017-09-28T09:40:42.147Z,16.10
2017-09-28T09:43:10.478Z,16.10
2017-09-28T09:45:39.107Z,16.20
2017-09-28T09:48:07.426Z,16.20
2017-09-28T09:50:35.759Z,16.30
2017-09-28T09:53:04.087Z,16.40
2017-09-28T09:55:32.400Z,16.50
2017-09-28T09:58:01.494Z,16.70
2017-09-28T10:00:29.806Z,16.60
2017-09-28T10:02:58.104Z,16.80
2017-09-28T10:05:26.428Z,16.90
2017-09-28T10:08:02.050Z,16.90
2017-09-28T10:10:33.960Z,17.00
2017-09-28T10:13:16.485Z,17.20
2017-09-28T10:15:51.952Z,17.20
2017-09-28T10:18:20.276Z,17.30
2017-09-28T10:20:48.595Z,17.40
2017-09-28T10:23:16.917Z,17.50
2017-09-28T10:25:45.260Z,17.60
2017-09-28T10:28:13.592Z,17.70
2017-09-28T10:30:41.894Z,17.80
2017-09-28T10:33:10.982Z,17.90
2017-09-28T10:35:39.280Z,17.90
2017-09-28T10:38:08.358Z,18.00
2017-09-28T10:40:36.846Z,18.00
2017-09-28T10:43:05.195Z,18.10
2017-09-28T10:45:33.660Z,18.10
2017-09-28T10:48:01.970Z,18.20
2017-09-28T10:50:30.278Z,18.30
2017-09-28T10:52:58.608Z,18.30
2017-09-28T10:55:27.024Z,18.40
2017-09-28T10:57:55.326Z,18.50
2017-09-28T11:00:23.635Z,18.50
2017-09-28T11:02:51.953Z,18.60
2017-09-28T11:05:20.276Z,18.60
2017-09-28T11:07:48.597Z,18.70
2017-09-28T11:10:16.912Z,18.70
2017-09-28T11:12:45.447Z,18.80
2017-09-28T11:15:14.528Z,18.90
2017-09-28T11:17:43.599Z,19.00
2017-09-28T11:20:11.926Z,19.00
2017-09-28T11:22:41.022Z,19.10
2017-09-28T11:25:10.118Z,19.20
2017-09-28T11:27:39.198Z,19.20
2017-09-28T11:30:07.493Z,19.20
2017-09-28T11:32:36.593Z,19.30
2017-09-28T11:35:05.656Z,19.30
2017-09-28T11:37:33.964Z,19.30
2017-09-28T11:40:02.281Z,19.30
2017-09-28T11:42:30.594Z,19.40
2017-09-28T11:44:58.913Z,19.40
2017-09-28T11:47:27.973Z,19.40
2017-09-28T11:49:56.295Z,19.40
2017-09-28T11:52:25.370Z,19.50
2017-09-28T11:54:54.465Z,19.50
2017-09-28T11:57:22.809Z,19.50
2017-09-28T11:59:51.124Z,19.60
2017-09-28T12:02:19.463Z,19.70
2017-09-28T12:04:47.764Z,19.70
2017-09-28T12:07:16.074Z,19.80
2017-09-28T12:09:44.404Z,19.90
2017-09-28T12:12:12.716Z,19.90
2017-09-28T12:14:41.025Z,20.00
2017-09-28T12:17:09.352Z,20.10
2017-09-28T12:19:37.671Z,20.10
2017-09-28T12:22:05.980Z,20.10
2017-09-28T12:24:34.315Z,20.20
2017-09-28T12:27:02.708Z,20.20
2017-09-28T12:29:31.213Z,20.20
2017-09-28T12:31:59.525Z,20.20
2017-09-28T12:34:28.593Z,20.20
2017-09-28T12:36:56.911Z,20.20
2017-09-28T12:39:25.993Z,20.20
2017-09-28T12:41:54.317Z,20.20
2017-09-28T12:44:22.621Z,20.20
2017-09-28T12:46:50.920Z,20.30
2017-09-28T12:49:19.245Z,20.30
2017-09-28T12:51:48.969Z,20.40
2017-09-28T12:54:17.295Z,20.40
2017-09-28T12:56:45.630Z,20.40
2017-09-28T12:59:13.931Z,20.50
2017-09-28T13:01:42.266Z,20.50
2017-09-28T13:04:11.362Z,20.60
2017-09-28T13:06:39.695Z,20.60
2017-09-28T13:09:08.011Z,20.60
2017-09-28T13:11:36.317Z,20.70
2017-09-28T13:14:05.467Z,20.80
2017-09-28T13:16:33.780Z,20.80
2017-09-28T13:19:02.094Z,20.80
2017-09-28T13:21:31.192Z,20.70
2017-09-28T13:24:00.275Z,20.70
2017-09-28T13:26:28.597Z,20.60
2017-09-28T13:28:56.975Z,20.60
2017-09-28T13:31:25.280Z,20.60
2017-09-28T13:33:53.593Z,20.60
2017-09-28T13:36:21.926Z,20.60
2017-09-28T13:38:50.249Z,20.60
2017-09-28T13:41:18.609Z,20.60
2017-09-28T13:43:46.916Z,20.60
2017-09-28T13:46:15.245Z,20.60
2017-09-28T13:48:43.554Z,20.50
2017-09-28T13:51:11.886Z,20.50
2017-09-28T13:53:40.983Z,20.50
2017-09-28T13:56:10.065Z,20.50
2017-09-28T13:58:38.374Z,20.50
2017-09-28T14:01:07.472Z,20.50
2017-09-28T14:03:36.548Z,20.50
2017-09-28T14:06:04.860Z,20.50
2017-09-28T14:08:33.192Z,20.50
2017-09-28T14:11:01.505Z,20.50
2017-09-28T14:13:30.580Z,20.50
2017-09-28T14:15:59.007Z,20.50
2017-09-28T14:18:27.345Z,20.50
2017-09-28T14:20:55.670Z,20.50
2017-09-28T14:23:23.996Z,20.50
2017-09-28T14:25:52.307Z,20.50
2017-09-28T14:28:20.630Z,20.50
2017-09-28T14:30:49.178Z,20.50
2017-09-28T14:33:17.482Z,20.50
2017-09-28T14:35:45.801Z,20.50
2017-09-28T14:38:14.131Z,20.40
2017-09-28T14:40:43.248Z,20.40
2017-09-28T14:43:11.545Z,20.40
2017-09-28T14:45:39.871Z,20.30
2017-09-28T14:48:08.206Z,20.30
2017-09-28T14:50:37.352Z,20.30
2017-09-28T14:53:05.677Z,20.20
2017-09-28T14:55:33.968Z,20.20
2017-09-28T14:58:02.283Z,20.10
2017-09-28T15:00:30.599Z,20.20
2017-09-28T15:02:59.677Z,20.20
2017-09-28T15:05:27.998Z,20.20
2017-09-28T15:07:57.113Z,20.20
2017-09-28T15:10:25.439Z,20.20
2017-09-28T15:12:53.784Z,20.20
2017-09-28T15:15:22.092Z,20.20
2017-09-28T15:17:50.424Z,20.20
2017-09-28T15:20:18.740Z,20.20
2017-09-28T15:22:47.119Z,20.20
2017-09-28T15:25:15.434Z,20.10
2017-09-28T15:27:43.754Z,20.20
2017-09-28T15:30:12.098Z,20.20
2017-09-28T15:32:40.432Z,20.20
2017-09-28T15:35:08.749Z,20.20
2017-09-28T15:37:37.051Z,20.20
2017-09-28T15:40:05.378Z,20.10
2017-09-28T15:42:33.704Z,20.10
2017-09-28T15:45:02.021Z,20.20
2017-09-28T15:47:31.095Z,20.10
2017-09-28T15:49:59.434Z,20.10
2017-09-28T15:52:27.789Z,20.10
2017-09-28T15:54:56.068Z,20.00
2017-09-28T15:57:25.164Z,20.00
2017-09-28T15:59:54.221Z,19.90
2017-09-28T16:02:22.521Z,19.90
2017-09-28T16:04:50.863Z,19.90
2017-09-28T16:07:19.177Z,19.90
2017-09-28T16:09:47.494Z,19.80
2017-09-28T16:12:15.824Z,19.80
2017-09-28T16:14:44.130Z,19.80
2017-09-28T16:17:12.429Z,19.70
2017-09-28T16:19:41.523Z,19.70
2017-09-28T16:22:10.654Z,19.60
2017-09-28T16:24:38.991Z,19.60
2017-09-28T16:27:07.304Z,19.60
2017-09-28T16:29:35.610Z,19.50
2017-09-28T16:32:03.927Z,19.50
2017-09-28T16:34:32.266Z,19.40
2017-09-28T16:37:00.571Z,19.30
2017-09-28T16:39:28.863Z,19.30
2017-09-28T16:41:57.182Z,19.30
2017-09-28T16:44:26.276Z,19.20
2017-09-28T16:46:55.379Z,19.10
2017-09-28T16:49:24.482Z,19.10
2017-09-28T16:51:53.567Z,19.00
2017-09-28T16:54:22.828Z,19.00
2017-09-28T16:56:51.141Z,19.00
2017-09-28T16:59:20.246Z,18.90
2017-09-28T17:01:50.053Z,18.90
2017-09-28T17:04:18.340Z,18.90
2017-09-28T17:06:46.666Z,18.90
2017-09-28T17:09:14.993Z,18.90
2017-09-28T17:11:43.310Z,18.80
2017-09-28T17:14:12.412Z,18.90
2017-09-28T17:16:41.520Z,18.90
2017-09-28T17:19:09.835Z,18.90
2017-09-28T17:21:38.135Z,18.80
2017-09-28T17:24:06.460Z,18.80
2017-09-28T17:26:35.540Z,18.60
2017-09-28T17:29:04.607Z,18.60
2017-09-28T17:31:32.924Z,18.60
2017-09-28T17:34:01.997Z,18.50
2017-09-28T17:36:30.437Z,18.50
2017-09-28T17:38:58.773Z,18.50
2017-09-28T17:41:27.106Z,18.50
2017-09-28T17:43:55.421Z,18.40
2017-09-28T17:46:23.735Z,18.40
2017-09-28T17:48:52.817Z,18.30
2017-09-28T17:51:21.133Z,18.30
2017-09-28T17:53:49.438Z,18.30
2017-09-28T17:56:17.751Z,18.30
2017-09-28T17:58:46.097Z,18.30
2017-09-28T18:01:14.404Z,18.30
2017-09-28T18:03:42.707Z,18.30
2017-09-28T18:06:11.022Z,18.30
2017-09-28T18:08:39.334Z,18.30
2017-09-28T18:11:07.673Z,18.30
2017-09-28T18:13:36.750Z,18.30
2017-09-28T18:16:05.817Z,18.30
2017-09-28T18:18:35.171Z,18.30
2017-09-28T18:21:04.261Z,18.20
2017-09-28T18:23:32.570Z,18.20
2017-09-28T18:26:00.882Z,18.20
2017-09-28T18:28:29.199Z,18.20
2017-09-28T18:30:57.528Z,18.20
2017-09-28T18:33:25.829Z,18.20
2017-09-28T18:35:54.185Z,18.20
2017-09-28T18:38:22.483Z,18.20
2017-09-28T18:40:50.785Z,18.20
2017-09-28T18:43:19.112Z,18.20
2017-09-28T18:45:48.183Z,18.20
2017-09-28T18:48:16.487Z,18.20
2017-09-28T18:50:45.587Z,18.20
2017-09-28T18:53:14.676Z,18.20
2017-09-28T18:55:42.990Z,18.20
2017-09-28T18:58:11.293Z,18.20
2017-09-28T19:00:39.614Z,18.20
2017-09-28T19:03:08.714Z,18.10
2017-09-28T19:05:37.036Z,18.10
2017-09-28T19:08:05.341Z,18.10
2017-09-28T19:10:33.667Z,18.10
2017-09-28T19:13:01.981Z,18.10
2017-09-28T19:15:30.299Z,18.10
2017-09-28T19:17:58.613Z,18.10
2017-09-28T19:20:27.294Z,18.10
2017-09-28T19:22:55.613Z,18.00
2017-09-28T19:25:23.929Z,18.00
2017-09-28T19:27:52.229Z,18.00
2017-09-28T19:30:20.573Z,18.00
2017-09-28T19:32:48.868Z,18.00
2017-09-28T19:35:17.883Z,18.00
2017-09-28T19:37:46.207Z,18.00
2017-09-28T19:40:15.282Z,17.90
2017-09-28T19:42:43.597Z,17.90
2017-09-28T19:45:11.923Z,17.90
2017-09-28T19:47:40.239Z,17.80
2017-09-28T19:50:08.557Z,17.80
2017-09-28T19:52:37.582Z,17.80
2017-09-28T19:55:05.889Z,17.80
2017-09-28T19:57:34.219Z,17.80
2017-09-28T20:00:02.538Z,17.70
2017-09-28T20:02:30.836Z,17.70
2017-09-28T20:04:59.158Z,17.70
2017-09-28T20:07:27.493Z,17.70
2017-09-28T20:09:55.811Z,17.60
2017-09-28T20:12:24.140Z,17.60
2017-09-28T20:14:52.464Z,17.60
2017-09-28T20:17:21.539Z,17.60
2017-09-28T20:19:50.626Z,17.60
2017-09-28T20:22:18.935Z,17.60
2017-09-28T20:24:47.252Z,17.60
2017-09-28T20:27:15.583Z,17.50
2017-09-28T20:29:45.500Z,17.50
2017-09-28T20:32:13.805Z,17.50
2017-09-28T20:34:42.893Z,17.50
2017-09-28T20:37:11.215Z,17.50
2017-09-28T20:39:39.525Z,17.50
2017-09-28T20:42:07.837Z,17.40
2017-09-28T20:44:36.159Z,17.40
2017-09-28T20:47:04.462Z,17.40
2017-09-28T20:49:32.775Z,17.30
2017-09-28T20:52:01.110Z,17.40
2017-09-28T20:54:30.019Z,17.30
2017-09-28T20:56:58.331Z,17.30
2017-09-28T20:59:27.412Z,17.20
2017-09-28T21:01:55.766Z,17.20
2017-09-28T21:04:24.125Z,17.20
2017-09-28T21:06:53.213Z,17.20
2017-09-28T21:09:22.325Z,17.20
2017-09-28T21:11:51.398Z,17.20
2017-09-28T21:14:19.710Z,17.10
2017-09-28T21:16:48.025Z,17.10
2017-09-28T21:19:16.371Z,17.10
2017-09-28T21:21:44.666Z,17.10
2017-09-28T21:24:12.965Z,17.00
2017-09-28T21:26:41.277Z,17.10
2017-09-28T21:29:09.602Z,17.00
2017-09-28T21:31:37.899Z,17.00
2017-09-28T21:34:06.244Z,17.00
2017-09-28T21:36:35.335Z,17.00
2017-09-28T21:39:03.649Z,16.90
2017-09-28T21:41:31.959Z,16.90
2017-09-28T21:44:00.340Z,16.90
2017-09-28T21:46:28.642Z,16.90
2017-09-28T21:48:56.945Z,16.90
2017-09-28T21:51:26.032Z,16.90
2017-09-28T21:53:54.545Z,16.80
2017-09-28T21:56:23.612Z,16.80
2017-09-28T21:58:51.920Z,16.80
2017-09-28T22:01:20.986Z,16.80
2017-09-28T22:03:49.309Z,16.80
2017-09-28T22:06:18.373Z,16.70
2017-09-28T22:08:46.682Z,16.70
2017-09-28T22:11:15.789Z,16.70
2017-09-28T22:13:44.859Z,16.70
2017-09-28T22:16:13.168Z,16.70
2017-09-28T22:18:42.241Z,16.70
2017-09-28T22:21:10.589Z,16.60
2017-09-28T22:23:38.959Z,16.60
2017-09-28T22:26:07.281Z,16.60
2017-09-28T22:28:35.614Z,16.60
2017-09-28T22:31:03.940Z,16.50
2017-09-28T22:33:32.256Z,16.60
2017-09-28T22:36:01.325Z,16.50
2017-09-28T22:38:29.625Z,16.50
2017-09-28T22:40:57.937Z,16.50
2017-09-28T22:43:26.241Z,16.50
2017-09-28T22:45:54.542Z,16.50
2017-09-28T22:48:22.874Z,16.50
2017-09-28T22:50:51.940Z,16.50
2017-09-28T22:53:20.257Z,16.50
2017-09-28T22:55:48.571Z,16.50
2017-09-28T22:58:16.902Z,16.50
2017-09-28T23:00:45.970Z,16.50
2017-09-28T23:03:14.274Z,16.40
2017-09-28T23:05:42.595Z,16.40
2017-09-28T23:08:10.906Z,16.40
2017-09-28T23:10:39.219Z,16.40
2017-09-28T23:13:08.230Z,16.40
2017-09-28T23:15:37.314Z,16.40
2017-09-28T23:18:05.642Z,16.40
2017-09-28T23:20:33.964Z,16.40
2017-09-28T23:23:02.262Z,16.30
2017-09-28T23:25:30.591Z,16.30
2017-09-28T23:27:58.902Z,16.30
2017-09-28T23:30:27.195Z,16.30
2017-09-28T23:32:56.346Z,16.20
2017-09-28T23:35:24.704Z,16.20
2017-09-28T23:37:53.802Z,16.20
2017-09-28T23:40:22.864Z,16.20
2017-09-28T23:42:51.184Z,16.20
2017-09-28T23:45:20.280Z,16.10
2017-09-28T23:47:49.472Z,16.10
2017-09-28T23:50:19.378Z,16.10
2017-09-28T23:52:47.701Z,16.10
2017-09-28T23:55:16.026Z,16.10
2017-09-28T23:57:44.329Z,16.10
